OH44 weather

Head Field
Galena, Ohio, United States

Public forecast

Using degrees Fahrenheit for public forecast. Weather courtesy of forecast.io.

METAR (pilot weather report)

Closest report is Delaware Municipal Airport, 8.5 nm (15.7 km) WNW. Retrieved 2019/05/24 04:35 UTC (0 seconds ago):

KDLZ 240435Z AUTO 00000KT 10SM CLR 18/15 A3009 RMK AO2

TAF (pilot weather forecast)

Forecast is more than 12 hours old.

Closest forecast is John Glenn Columbus International Airport, 13.6 nm (25.2 km) S. Retrieved 2019/05/23 00:36 UTC (1 day ago):

TAF KCMH 232334Z 2400/2424 27014G25KT P6SM VCSH SCT040 SCT100 BKN150 FM240200 29007KT P6SM SCT045 FM240400 32006KT P6SM FEW250 FM240700 35004KT P6SM FEW250 FM241300 02005KT P6SM FEW180 FM241600 18006KT P6SM SCT180